Burns, CO (80426)

7:21 PM MDT on October 25, 2014 (GMT -0600)
Eagle County Regional | Change Station
CLOSE
Current Station
Airport
Location: Eagle,
Elevation: 6539 ft
Nearby Weather Stations

Elev 6539 ft 39.64 °N, 106.91 °W | Updated 6 minutes ago

Clear
Clear
59 °F
Feels Like 59 °F
N
6
Wind Variable Wind from East

Today
High -- | Low -- °F
--% Chance of Precip.
Yesterday
High -- | Low -- °F
Precip. -- in
7:28 AM 6:14 PM
Waxing Crescent, 5% visible
Pressure 30.18 in
Visibility 10.0 miles
Clouds Clear
Dew Point 28 °F
Humidity 31%
Rainfall 0.00 in
Snow Depth Not available.
UV 0 out of 12
Pollen 2.10 out of 12
Air Quality Not available.
Flu Activity Sporadic
METAR KEGE 260115Z AUTO 10005KT 10SM CLR 15/M02 A3018 RMK AO1

More Conditions Fewer Conditions

Pressure 30.18 in
Visibility 10.0 miles
Clouds Clear
Dew Point 28 °F
Humidity 31%
Rainfall 0.00 in
Snow Depth Not available.
UV 0 out of 12
Pollen 2.10 out of 12
Air Quality Not available.
Flu Activity Sporadic
METAR KEGE 260115Z AUTO 10005KT 10SM CLR 15/M02 A3018 RMK AO1

More Conditions Fewer Conditions

10-Day Weather Forecast

Almanac

Astronomy

Oct. 25, 2014 Rise Set
Actual Time 7:28 AM MDT 6:14 PM MDT
Civil Twilight 7:01 AM MDT 6:41 PM MDT
Nautical Twilight 6:29 AM MDT 7:13 PM MDT
Astronomical Twilight 5:58 AM MDT 7:44 PM MDT
Moon 9:10 AM MDT (10/25) 7:39 PM MDT (10/25)
Length of Visible Light 11h 40m
Length of Day
10h 45m
Tomorrow will be 2m 24s shorter.
Waxing Crescent, 5% of the Moon is Illuminated
Today
Waxing Crescent
Oct 30
First Quarter
Nov 6
Full
Nov 14
Last Quarter
Nov 22
New

Today's Extremes

State Highs State Lows

Community

WunderPhotos

Upload Photos

1,765,065 photos uploaded!

Nearby

Snow Depth

Station Depth Elevation
Bison Lake 0 in 10880 ft
Ripple Creek 0 in 10340 ft
Mccoy Park 3 in 9480 ft
Rabbit Ears 0 in 9400 ft
Kiln 0 in 9600 ft

Earthquake Activity

City Distance Mag. Time & Date
No recent earthquake activity has been reported nearby.
Minimum magnitude displayed is 2.5.

Coastal Water Temperatures

Place Temperature
No Stations Reporting

Nearby Weather Stations